MMVA/VSA METAR and TAF weather

Enter ICAO airport designator
Station Type Date Time Source
MMVA METAR 2019/02/21 10:32 UTC NOAA

MMVA 211032Z 29004KT 2SM BR BKN006 23/22 A2986 RMK 8/600 RTS


Station Type Date Time Source
MMVA Decoded METAR 2019/02/21 10:32 UTC NOAA

Villahermosa , Mexico (MMVA) 18-00N 092-49W
Feb 21, 2019 - 05:32 AM EST / 2019.02.21 1032 UTC
Wind: from the WNW (290 degrees) at 5 MPH (4 KT):0
Visibility: 2 mile(s):0
Sky conditions: mostly cloudy
Weather: mist
Temperature: 73 F (23 C)
Dew Point: 71 F (22 C)
Relative Humidity: 94%
Pressure (altimeter): 29.86 in. Hg (1011 hPa)
ob: MMVA 211032Z 29004KT 2SM BR BKN006 23/22 A2986 RMK 8/600 RTS
cycle: 10

Station Type Date Time Source
MMVA TAF 2019/02/21 06:10 UTC NOAA

TAF MMVA 210504Z 2106/2206 24005KT 6SM HZ SKC
FM210900 00000KT 4SM HZ BKN015 PROB40 2111/2115 3SM -RA BR BKN010
FM211800 03010KT 6SM HZ SCT040 SCT100
FM220500 09005KT 6SM HZ SKC


Example: see airport list